No particular awareness of the weather is required.    There are no Weather-warnings


Meteo18 Weather Cam more information Meteo18 Weather Cam


Thunder radar more information blitzortung!


Rain radar more information rain snow radar


Visit our other weather sites:

Template documentation
and downloads

And another site



Weather Underground History page Text

Daily Summary for July 29, 2017 Units:  English    Metric   Both
« Previous Day
Next Day »
Daily Weekly Monthly Yearly Custom
  High: Low: Average:
Temperature: TemperatureC °F 13.6 °F 21.2 °F
Dew Point: DewpointC °F 12.3 °F 14.3 °F
Humidity: Humidity % 40 % 67 %
Wind Speed: WindSpeedKMH mph 0.0 mph 5 mph
Wind Gust: WindSpeedGustKMH mph - -
Wind:- - SW
Pressure: PressurehPa in 1012.4 in -
Precipitation: 0.0 in    
Historical Graphs
 
 
Tabular Data for July 29, 2017
Time Temperature Dew Point Pressure Wind Wind Speed Wind Gust Humidity Rainfall Rate (Hourly)
TemperatureC °F DewpointC °F PressurehPa in Calm     Humidity % HourlyPrecipMM in
00:02 16.7 °F 13.4 °F 1017.8 in SSW 1.6 mph 3.2 mph 81 % 0.0 in
00:12 16.8 °F 13.3 °F 1017.8 in SSW 3.2 mph 3.2 mph 80 % 0.0 in
00:17 16.9 °F 13.4 °F 1017.8 in SW 4.8 mph 4.8 mph 80 % 0.0 in
00:22 17.2 °F 13.5 °F 1017.8 in SW 4.8 mph 4.8 mph 79 % 0.0 in
00:32 17.6 °F 13.5 °F 1017.8 in SW 4.8 mph 6.4 mph 77 % 0.0 in
00:42 17.6 °F 13.5 °F 1017.8 in SSW 1.6 mph 8.0 mph 77 % 0.0 in
00:47 17.6 °F 13.5 °F 1017.8 in SW 3.2 mph 8.0 mph 77 % 0.0 in
00:52 17.6 °F 13.5 °F 1017.8 in Calm   8.0 mph 77 % 0.0 in
01:02 17.2 °F 13.3 °F 1017.8 in West 3.2 mph 6.4 mph 78 % 0.0 in
01:12 17.3 °F 13.4 °F 1017.8 in WSW 1.6 mph 6.4 mph 78 % 0.0 in
01:17 17.3 °F 13.4 °F 1017.8 in WSW 1.6 mph 8.0 mph 78 % 0.0 in
01:22 17.3 °F 13.4 °F 1017.8 in SW 3.2 mph 8.0 mph 78 % 0.0 in
01:32 17.3 °F 13.6 °F 1017.8 in SW 4.8 mph 8.0 mph 79 % 0.0 in
01:42 17.2 °F 13.5 °F 1017.8 in Calm   8.0 mph 79 % 0.0 in
01:47 17.0 °F 13.3 °F 1017.8 in Calm   8.0 mph 79 % 0.0 in
01:52 16.7 °F 13.2 °F 1017.8 in Calm   6.4 mph 80 % 0.0 in
01:57 16.3 °F 13.0 °F 1017.8 in Calm   4.8 mph 81 % 0.0 in
02:02 15.9 °F 12.8 °F 1017.8 in Calm   3.2 mph 82 % 0.0 in
02:12 15.4 °F 12.7 °F 1017.8 in Calm   1.6 mph 84 % 0.0 in
02:17 15.3 °F 12.8 °F 1017.8 in Calm   1.6 mph 85 % 0.0 in
02:22 15.2 °F 12.7 °F 1017.8 in Calm   1.6 mph 85 % 0.0 in
02:32 15.0 °F 12.7 °F 1017.8 in Calm     86 % 0.0 in
02:42 14.9 °F 12.8 °F 1017.8 in Calm   1.6 mph 87 % 0.0 in
02:47 14.9 °F 12.8 °F 1017.5 in Calm   1.6 mph 87 % 0.0 in
02:52 14.8 °F 12.7 °F 1017.8 in Calm   1.6 mph 87 % 0.0 in
02:57 14.6 °F 12.5 °F 1017.8 in Calm   1.6 mph 87 % 0.0 in
03:02 14.4 °F 12.4 °F 1017.8 in Calm   1.6 mph 88 % 0.0 in
03:12 14.4 °F 12.6 °F 1017.8 in Calm     89 % 0.0 in
03:17 14.6 °F 12.8 °F 1017.8 in Calm     89 % 0.0 in
03:22 14.7 °F 12.9 °F 1017.8 in Calm     89 % 0.0 in
03:32 14.6 °F 12.6 °F 1017.8 in Calm     88 % 0.0 in
03:37 14.5 °F 12.5 °F 1017.8 in Calm     88 % 0.0 in
03:42 14.4 °F 12.6 °F 1017.5 in Calm     89 % 0.0 in
03:47 14.3 °F 12.5 °F 1017.5 in Calm     89 % 0.0 in
03:52 14.3 °F 12.5 °F 1017.5 in Calm     89 % 0.0 in
03:57 14.2 °F 12.4 °F 1017.5 in Calm     89 % 0.0 in
04:02 14.2 °F 12.6 °F 1017.8 in Calm     90 % 0.0 in
04:12 14.1 °F 12.5 °F 1017.5 in SSE 1.6 mph   90 % 0.0 in
04:17 14.1 °F 12.5 °F 1017.5 in Calm     90 % 0.0 in
04:22 14.1 °F 12.5 °F 1017.5 in Calm   1.6 mph 90 % 0.0 in
04:27 14.1 °F 12.5 °F 1017.5 in SSE 1.6 mph 3.2 mph 90 % 0.0 in
04:32 14.1 °F 12.5 °F 1017.5 in SE 1.6 mph 3.2 mph 90 % 0.0 in
04:37 14.1 °F 12.5 °F 1017.5 in SE 1.6 mph 3.2 mph 90 % 0.0 in
04:42 14.0 °F 12.6 °F 1017.5 in Calm   3.2 mph 91 % 0.0 in
04:47 14.0 °F 12.6 °F 1017.5 in Calm   3.2 mph 91 % 0.0 in
04:52 14.1 °F 12.7 °F 1017.8 in Calm   3.2 mph 91 % 0.0 in
04:57 14.1 °F 12.7 °F 1017.8 in SE 1.6 mph 3.2 mph 91 % 0.0 in
05:02 14.1 °F 12.7 °F 1017.8 in SSE 1.6 mph 3.2 mph 91 % 0.0 in
05:12 14.0 °F 12.6 °F 1017.8 in Calm   3.2 mph 91 % 0.0 in
05:17 14.0 °F 12.6 °F 1017.8 in Calm   3.2 mph 91 % 0.0 in
05:22 13.9 °F 12.5 °F 1017.8 in Calm   1.6 mph 91 % 0.0 in
05:32 13.9 °F 12.5 °F 1017.8 in Calm   1.6 mph 91 % 0.0 in
05:42 13.9 °F 12.5 °F 1017.8 in Calm   3.2 mph 91 % 0.0 in
05:47 13.8 °F 12.4 °F 1017.8 in Calm   3.2 mph 91 % 0.0 in
05:52 13.7 °F 12.4 °F 1017.8 in Calm   3.2 mph 92 % 0.0 in
05:57 13.7 °F 12.4 °F 1017.8 in Calm   3.2 mph 92 % 0.0 in
06:02 13.7 °F 12.4 °F 1017.8 in Calm   3.2 mph 92 % 0.0 in
06:12 13.7 °F 12.4 °F 1017.8 in Calm   1.6 mph 92 % 0.0 in
06:17 13.6 °F 12.3 °F 1017.8 in Calm   1.6 mph 92 % 0.0 in
06:22 13.6 °F 12.3 °F 1017.8 in Calm     92 % 0.0 in
06:32 13.6 °F 12.5 °F 1017.8 in SSE 1.6 mph   93 % 0.0 in
06:37 13.7 °F 12.6 °F 1017.8 in Calm     93 % 0.0 in
06:42 13.7 °F 12.6 °F 1018.2 in Calm   4.8 mph 93 % 0.0 in
06:52 13.8 °F 12.7 °F 1018.2 in SE 1.6 mph 3.2 mph 93 % 0.0 in
07:02 14.1 °F 13.0 °F 1018.2 in SSE 1.6 mph 3.2 mph 93 % 0.0 in
07:07 14.1 °F 13.0 °F 1018.2 in Calm   3.2 mph 93 % 0.0 in
07:12 14.2 °F 13.1 °F 1018.2 in SSE 1.6 mph 4.8 mph 93 % 0.0 in
07:17 14.3 °F 13.2 °F 1018.2 in SSW 1.6 mph 4.8 mph 93 % 0.0 in
07:22 14.3 °F 13.0 °F 1018.2 in SSW 1.6 mph 3.2 mph 92 % 0.0 in
07:32 14.4 °F 13.1 °F 1018.5 in SSW 3.2 mph 4.8 mph 92 % 0.0 in
07:42 14.4 °F 13.1 °F 1018.5 in SSW 3.2 mph 4.8 mph 92 % 0.0 in
07:47 14.6 °F 13.3 °F 1018.2 in South 3.2 mph 4.8 mph 92 % 0.0 in
07:52 14.6 °F 13.3 °F 1018.2 in SE 1.6 mph 4.8 mph 92 % 0.0 in
08:02 14.8 °F 13.5 °F 1018.2 in SSW 1.6 mph 4.8 mph 92 % 0.0 in
08:12 14.9 °F 13.6 °F 1018.2 in Calm   4.8 mph 92 % 0.0 in
08:17 15.0 °F 13.5 °F 1018.2 in SSW 1.6 mph 4.8 mph 91 % 0.0 in
08:27 15.2 °F 13.9 °F 1018.2 in Calm   3.2 mph 92 % 0.0 in
08:32 15.3 °F 14.0 °F 1018.2 in Calm   3.2 mph 92 % 0.0 in
08:37 15.4 °F 13.9 °F 1018.5 in Calm   3.2 mph 91 % 0.0 in
08:42 15.6 °F 14.3 °F 1018.5 in Calm   3.2 mph 92 % 0.0 in
08:52 15.9 °F 14.4 °F 1018.5 in SSW 3.2 mph 9.7 mph 91 % 0.0 in
09:02 16.4 °F 14.6 °F 1018.2 in SSW 6.4 mph 9.7 mph 89 % 0.0 in
09:12 16.8 °F 14.8 °F 1018.5 in SW 3.2 mph 11.3 mph 88 % 0.0 in
09:17 17.1 °F 14.9 °F 1018.5 in SSW 4.8 mph 11.3 mph 87 % 0.0 in
09:22 17.3 °F 14.9 °F 1018.5 in South 8.0 mph 9.7 mph 86 % 0.0 in
09:32 17.5 °F 14.9 °F 1018.5 in SW 6.4 mph 11.3 mph 85 % 0.0 in
09:42 18.2 °F 15.5 °F 1018.2 in SSW 4.8 mph 9.7 mph 84 % 0.0 in
09:52 18.3 °F 15.4 °F 1018.2 in SSW 3.2 mph 12.9 mph 83 % 0.0 in
09:57 18.3 °F 15.4 °F 1018.2 in SW 11.3 mph 12.9 mph 83 % 0.0 in
10:02 18.3 °F 15.5 °F 1018.2 in SSW 6.4 mph 12.9 mph 84 % 0.0 in
10:12 18.4 °F 15.5 °F 1018.2 in SW 6.4 mph 12.9 mph 83 % 0.0 in
10:17 18.4 °F 15.3 °F 1018.2 in SW 6.4 mph 12.9 mph 82 % 0.0 in
10:22 18.4 °F 15.3 °F 1018.2 in SW 4.8 mph 14.5 mph 82 % 0.0 in
10:32 18.9 °F 15.6 °F 1018.2 in SW 11.3 mph 19.3 mph 81 % 0.0 in
10:37 19.2 °F 15.7 °F 1018.2 in SSW 3.2 mph 19.3 mph 80 % 0.0 in
10:42 19.6 °F 15.5 °F 1017.8 in SW 14.5 mph 19.3 mph 77 % 0.0 in
10:47 19.6 °F 15.7 °F 1018.2 in SSW 17.7 mph 19.3 mph 78 % 0.0 in
10:52 19.8 °F 15.7 °F 1017.8 in South 4.8 mph 17.7 mph 77 % 0.0 in
11:02 20.2 °F 15.4 °F 1017.8 in WSW 8.0 mph 17.7 mph 74 % 0.0 in
11:12 20.6 °F 15.4 °F 1017.8 in SSW 9.7 mph 19.3 mph 72 % 0.0 in
11:17 20.8 °F 15.1 °F 1017.8 in SW 19.3 mph 19.3 mph 70 % 0.0 in
11:22 20.8 °F 14.9 °F 1017.8 in WSW 6.4 mph 19.3 mph 69 % 0.0 in
11:32 21.1 °F 14.5 °F 1017.8 in SSW 8.0 mph 19.3 mph 66 % 0.0 in
11:42 21.4 °F 14.8 °F 1017.8 in South 6.4 mph 16.1 mph 66 % 0.0 in
11:47 21.5 °F 14.6 °F 1017.5 in SSW 9.7 mph 16.1 mph 65 % 0.0 in
11:52 21.6 °F 14.7 °F 1017.5 in SSW 9.7 mph 17.7 mph 65 % 0.0 in
11:57 21.8 °F 14.7 °F 1017.5 in SW 9.7 mph 17.7 mph 64 % 0.0 in
12:02 22.3 °F 15.2 °F 1017.5 in SSW 8.0 mph 17.7 mph 64 % 0.0 in
12:12 22.3 °F 13.6 °F 1017.5 in SSW 11.3 mph 14.5 mph 58 % 0.0 in
12:17 22.4 °F 14.0 °F 1017.5 in SW 4.8 mph 14.5 mph 59 % 0.0 in
12:22 22.8 °F 14.1 °F 1017.5 in SW 4.8 mph 16.1 mph 58 % 0.0 in
12:32 22.7 °F 13.7 °F 1017.5 in SW 3.2 mph 16.1 mph 57 % 0.0 in
12:37 22.8 °F 14.1 °F 1017.2 in SW 4.8 mph 16.1 mph 58 % 0.0 in
12:42 22.8 °F 13.6 °F 1017.5 in WSW 11.3 mph 14.5 mph 56 % 0.0 in
12:47 22.9 °F 13.9 °F 1017.2 in SW 4.8 mph 14.5 mph 57 % 0.0 in
12:52 22.9 °F 13.4 °F 1017.2 in SSW 8.0 mph 14.5 mph 55 % 0.0 in
13:02 23.2 °F 13.9 °F 1017.2 in SW 8.0 mph 19.3 mph 56 % 0.0 in
13:07 23.6 °F 14.3 °F 1017.2 in SSW 6.4 mph 19.3 mph 56 % 0.0 in
13:17 23.8 °F 13.9 °F 1016.8 in SW 8.0 mph 16.1 mph 54 % 0.0 in
13:22 24.0 °F 15.0 °F 1016.8 in SSW 9.7 mph 20.9 mph 57 % 0.0 in
13:27 24.0 °F 14.4 °F 1016.8 in SW 4.8 mph 20.9 mph 55 % 0.0 in
13:32 24.3 °F 15.2 °F 1016.8 in SW 9.7 mph 20.9 mph 57 % 0.0 in
13:42 24.7 °F 14.2 °F 1016.5 in SSW 14.5 mph 17.7 mph 52 % 0.0 in
13:52 25.1 °F 14.8 °F 1016.5 in SSW 3.2 mph 20.9 mph 53 % 0.0 in
13:57 25.4 °F 14.8 °F 1016.5 in SSW 9.7 mph 20.9 mph 52 % 0.0 in
14:02 25.5 °F 14.9 °F 1016.1 in South 8.0 mph 14.5 mph 52 % 0.0 in
14:12 25.8 °F 14.9 °F 1016.1 in South 11.3 mph 22.5 mph 51 % 0.0 in
14:17 25.7 °F 14.2 °F 1016.1 in SW 11.3 mph 22.5 mph 49 % 0.0 in
14:27 26.0 °F 14.5 °F 1015.8 in South 4.8 mph 20.9 mph 49 % 0.0 in
14:32 26.2 °F 15.0 °F 1015.5 in SW 11.3 mph 20.9 mph 50 % 0.0 in
14:42 26.4 °F 14.8 °F 1015.5 in SSW 9.7 mph 16.1 mph 49 % 0.0 in
14:47 26.4 °F 15.4 °F 1015.5 in SW 4.8 mph 16.1 mph 51 % 0.0 in
14:57 27.6 °F 16.2 °F 1015.1 in ESE 1.6 mph 14.5 mph 50 % 0.0 in
15:02 27.7 °F 16.0 °F 1015.1 in SSE 6.4 mph 14.5 mph 49 % 0.0 in
15:12 28.0 °F 16.0 °F 1014.8 in SW 11.3 mph 16.1 mph 48 % 0.0 in
15:17 27.8 °F 15.8 °F 1014.8 in SSW 4.8 mph 16.1 mph 48 % 0.0 in
15:22 28.1 °F 16.1 °F 1014.8 in SSW 6.4 mph 17.7 mph 48 % 0.0 in
15:27 28.4 °F 16.7 °F 1014.4 in SE 6.4 mph 17.7 mph 49 % 0.0 in
15:37 28.4 °F 15.7 °F 1014.4 in SSW 8.0 mph 14.5 mph 46 % 0.0 in
15:42 28.4 °F 16.3 °F 1014.4 in SSW 11.3 mph 14.5 mph 48 % 0.0 in
15:47 28.2 °F 15.8 °F 1014.4 in Calm   17.7 mph 47 % 0.0 in
15:52 28.8 °F 16.0 °F 1014.4 in SW 4.8 mph 17.7 mph 46 % 0.0 in
15:57 28.7 °F 16.3 °F 1014.4 in SSE 4.8 mph 17.7 mph 47 % 0.0 in
16:02 28.9 °F 16.5 °F 1014.4 in SW 9.7 mph 16.1 mph 47 % 0.0 in
16:12 28.5 °F 16.1 °F 1014.1 in SW 8.0 mph 16.1 mph 47 % 0.0 in
16:17 28.5 °F 16.1 °F 1014.1 in SSW 4.8 mph 19.3 mph 47 % 0.0 in
16:22 28.7 °F 16.3 °F 1014.1 in SSE 1.6 mph 19.3 mph 47 % 0.0 in
16:32 28.6 °F 16.5 °F 1014.1 in WSW 9.7 mph 14.5 mph 48 % 0.0 in
16:37 28.7 °F 15.9 °F 1014.1 in SSW 1.6 mph 19.3 mph 46 % 0.0 in
16:42 28.9 °F 16.8 °F 1013.8 in SSW 8.0 mph 19.3 mph 48 % 0.0 in
16:47 28.7 °F 15.9 °F 1013.8 in WSW 9.7 mph 17.7 mph 46 % 0.0 in
16:52 28.9 °F 16.1 °F 1013.8 in WSW 8.0 mph 20.9 mph 46 % 0.0 in
17:02 28.9 °F 16.1 °F 1013.8 in SW 6.4 mph 20.9 mph 46 % 0.0 in
17:12 29.4 °F 16.2 °F 1013.4 in West 9.7 mph 20.9 mph 45 % 0.0 in
17:17 29.5 °F 16.0 °F 1013.4 in SW 22.5 mph 22.5 mph 44 % 0.0 in
17:22 29.4 °F 15.9 °F 1013.4 in SSW 9.7 mph 19.3 mph 44 % 0.0 in
17:32 29.8 °F 15.9 °F 1013.1 in SSW 11.3 mph 24.1 mph 43 % 0.0 in
17:42 29.9 °F 16.7 °F 1013.1 in SW 6.4 mph 22.5 mph 45 % 0.0 in
17:47 30.1 °F 17.2 °F 1013.1 in SSW 9.7 mph 20.9 mph 46 % 0.0 in
17:52 30.1 °F 16.1 °F 1013.1 in SW 17.7 mph 20.9 mph 43 % 0.0 in
17:57 30.0 °F 15.3 °F 1013.1 in West 1.6 mph 24.1 mph 41 % 0.0 in
18:02 30.1 °F 15.8 °F 1012.8 in SW 11.3 mph 24.1 mph 42 % 0.0 in
18:07 30.2 °F 15.5 °F 1012.8 in WSW 11.3 mph 24.1 mph 41 % 0.0 in
18:12 30.2 °F 16.2 °F 1012.8 in SSE 6.4 mph 24.1 mph 43 % 0.0 in
18:17 30.2 °F 15.5 °F 1012.8 in WSW 11.3 mph 27.4 mph 41 % 0.0 in
18:22 30.1 °F 15.4 °F 1012.8 in SSW 6.4 mph 27.4 mph 41 % 0.0 in
18:32 30.1 °F 15.8 °F 1012.8 in SW 19.3 mph 30.6 mph 42 % 0.0 in
18:42 29.8 °F 15.1 °F 1012.8 in WSW 11.3 mph 32.2 mph 41 % 0.0 in
18:47 29.8 °F 15.5 °F 1012.4 in WSW 9.7 mph 32.2 mph 42 % 0.0 in
18:52 29.7 °F 14.7 °F 1012.8 in SW 11.3 mph 32.2 mph 40 % 0.0 in
19:02 29.6 °F 15.0 °F 1012.8 in SW 11.3 mph 29.0 mph 41 % 0.0 in
19:12 29.4 °F 14.4 °F 1012.8 in WSW 6.4 mph 29.0 mph 40 % 0.0 in
19:17 29.3 °F 14.3 °F 1012.4 in SW 14.5 mph 29.0 mph 40 % 0.0 in
19:22 29.3 °F 14.7 °F 1012.4 in WSW 16.1 mph 25.7 mph 41 % 0.0 in
19:32 29.2 °F 14.2 °F 1012.8 in SW 14.5 mph 25.7 mph 40 % 0.0 in
19:42 29.1 °F 14.5 °F 1012.8 in WSW 12.9 mph 25.7 mph 41 % 0.0 in
19:52 28.9 °F 14.7 °F 1012.8 in SW 8.0 mph 24.1 mph 42 % 0.0 in
19:57 28.8 °F 14.6 °F 1012.8 in SSW 11.3 mph 24.1 mph 42 % 0.0 in
20:02 28.7 °F 14.5 °F 1012.8 in WSW 12.9 mph 24.1 mph 42 % 0.0 in
20:12 28.5 °F 14.3 °F 1012.8 in SW 11.3 mph 22.5 mph 42 % 0.0 in
20:22 28.2 °F 14.4 °F 1012.8 in WSW 12.9 mph 22.5 mph 43 % 0.0 in
20:32 27.8 °F 14.4 °F 1012.8 in West 4.8 mph 22.5 mph 44 % 0.0 in
20:42 27.6 °F 14.6 °F 1012.8 in WSW 9.7 mph 22.5 mph 45 % 0.0 in
20:47 27.4 °F 14.8 °F 1012.8 in SW 6.4 mph 17.7 mph 46 % 0.0 in
20:52 27.2 °F 14.9 °F 1012.8 in SW 8.0 mph 17.7 mph 47 % 0.0 in
20:57 27.0 °F 14.7 °F 1012.8 in West 3.2 mph 17.7 mph 47 % 0.0 in
21:02 26.8 °F 14.9 °F 1012.8 in SW 8.0 mph 16.1 mph 48 % 0.0 in
21:12 26.4 °F 14.8 °F 1012.8 in WSW 6.4 mph 14.5 mph 49 % 0.0 in
21:17 26.3 °F 14.7 °F 1012.8 in SW 3.2 mph 12.9 mph 49 % 0.0 in
21:22 26.1 °F 14.9 °F 1012.8 in WSW 9.7 mph 12.9 mph 50 % 0.0 in
21:32 25.6 °F 15.0 °F 1012.8 in West 3.2 mph 11.3 mph 52 % 0.0 in
21:42 25.0 °F 15.0 °F 1012.8 in Calm   11.3 mph 54 % 0.0 in
21:52 24.6 °F 15.0 °F 1012.8 in West 1.6 mph 3.2 mph 55 % 0.0 in
21:57 24.4 °F 15.1 °F 1012.8 in WSW 3.2 mph 3.2 mph 56 % 0.0 in
22:02 24.2 °F 15.1 °F 1012.8 in WSW 3.2 mph 6.4 mph 57 % 0.0 in
22:12 23.9 °F 15.1 °F 1012.8 in West 3.2 mph 6.4 mph 58 % 0.0 in
22:17 23.8 °F 15.0 °F 1013.1 in West 3.2 mph 4.8 mph 58 % 0.0 in
22:22 23.8 °F 15.0 °F 1013.1 in SW 1.6 mph 4.8 mph 58 % 0.0 in
22:27 23.7 °F 15.2 °F 1013.1 in WSW 4.8 mph 6.4 mph 59 % 0.0 in
22:32 23.6 °F 15.1 °F 1013.1 in WSW 3.2 mph 6.4 mph 59 % 0.0 in
22:42 23.4 °F 15.2 °F 1013.1 in West 3.2 mph 6.4 mph 60 % 0.0 in
22:47 23.5 °F 15.3 °F 1013.1 in WSW 3.2 mph 11.3 mph 60 % 0.0 in
22:52 23.5 °F 15.0 °F 1013.1 in WSW 6.4 mph 11.3 mph 59 % 0.0 in
22:57 23.6 °F 15.1 °F 1013.1 in West 4.8 mph 11.3 mph 59 % 0.0 in
23:02 23.6 °F 15.1 °F 1013.1 in WSW 4.8 mph 9.7 mph 59 % 0.0 in
23:07 23.7 °F 15.2 °F 1013.1 in WSW 4.8 mph 9.7 mph 59 % 0.0 in
23:12 23.6 °F 15.1 °F 1013.1 in WSW 4.8 mph 9.7 mph 59 % 0.0 in
23:17 23.5 °F 15.0 °F 1013.1 in WSW 3.2 mph 11.3 mph 59 % 0.0 in
23:22 23.4 °F 14.9 °F 1013.1 in SW 6.4 mph 11.3 mph 59 % 0.0 in
23:32 23.2 °F 15.0 °F 1013.1 in SW 4.8 mph 11.3 mph 60 % 0.0 in
23:37 23.1 °F 15.2 °F 1013.1 in SW 4.8 mph 9.7 mph 61 % 0.0 in
23:42 22.9 °F 15.0 °F 1013.1 in SW 6.4 mph 9.7 mph 61 % 0.0 in
23:47 22.7 °F 15.3 °F 1013.1 in SW 6.4 mph 11.3 mph 63 % 0.0 in
23:52 22.5 °F 15.1 °F 1013.1 in SW 1.6 mph 11.3 mph 63 % 0.0 in
23:57 22.2 °F 15.1 °F 1013.1 in SSW 1.6 mph 11.3 mph 64 % 0.0 in
Meteo18
Compliments of Weather Underground - 4 mb

Script developed by  Jim McMurry - jmcmurry@mwt.net Adapted for the template by  Wim van der Kuil - Leuven-Template.eu

You find our weather info also at:

European Weather Network

Weather Underground

Equipment we use:

Weather-station
Davis Vue

Weather-program
Meteobridge

Weather-server
Raspberry PI 2 B+

Provider
1 and 1

Davis Vue

Meteobridge

Raspberry PI 2 B+

1 and 1